Time;durP1;ratioP1;P1;durP2;ratioP2;P2;SDS_P1;SDS_P2;PMS_P1;PMS_P2;Temp;Humidity;BMP_temperature;BMP_pressure;BME280_temperature;BME280_humidity;BME280_pressure;Samples;Min_cycle;Max_cycle;Signal;HPM_P1;HPM_P2
2022/04/06 00:00:43;;;;;;;0.80;0.80;;;4.00;99.90;;;;;;4987963;28;20195;-81
2022/04/06 00:03:09;;;;;;;1.10;1.00;;;4.00;99.90;;;;;;5006107;28;20184;-81
2022/04/06 00:05:35;;;;;;;0.80;0.80;;;4.00;99.90;;;;;;5005856;28;20195;-81
2022/04/06 00:08:01;;;;;;;0.80;0.70;;;4.00;99.90;;;;;;5008499;28;20242;-82
2022/04/06 00:10:28;;;;;;;0.83;0.80;;;3.90;99.90;;;;;;5008784;28;20447;-82
2022/04/06 00:12:54;;;;;;;1.20;1.10;;;4.00;99.90;;;;;;5006219;28;20478;-82
2022/04/06 00:15:19;;;;;;;0.90;0.80;;;3.90;99.90;;;;;;5000269;28;20455;-82
2022/04/06 00:17:46;;;;;;;0.80;0.80;;;3.90;99.90;;;;;;5007235;28;20259;-82
2022/04/06 00:20:12;;;;;;;0.90;0.80;;;3.90;99.90;;;;;;5016100;28;20198;-82
2022/04/06 00:22:40;;;;;;;0.87;0.80;;;3.90;99.90;;;;;;5015412;28;20431;-82
2022/04/06 00:25:05;;;;;;;0.90;0.80;;;3.80;99.90;;;;;;5007550;28;21029;-82
2022/04/06 00:27:31;;;;;;;0.90;0.80;;;3.90;99.90;;;;;;5009339;28;20522;-82
2022/04/06 00:29:57;;;;;;;0.90;0.80;;;3.90;99.90;;;;;;5008718;28;20223;-82
2022/04/06 00:32:23;;;;;;;0.80;0.80;;;3.80;99.90;;;;;;5004181;28;20204;-82
2022/04/06 00:37:32;;;;;;;0.90;0.80;;;3.80;99.90;;;;;;5007081;28;20246;-82
2022/04/06 00:39:58;;;;;;;0.83;0.77;;;3.90;99.90;;;;;;5019286;28;20446;-82
2022/04/06 00:42:23;;;;;;;0.80;0.77;;;3.90;99.90;;;;;;4999581;28;20186;-82
2022/04/06 00:44:48;;;;;;;0.80;0.70;;;3.80;99.90;;;;;;5008498;28;20679;-82
2022/04/06 00:47:14;;;;;;;0.80;0.70;;;3.90;99.90;;;;;;5008875;28;20192;-82
2022/04/06 00:49:40;;;;;;;0.80;0.70;;;3.90;99.90;;;;;;5019789;28;20184;-82
2022/04/06 00:52:07;;;;;;;0.80;0.70;;;3.90;99.90;;;;;;4990204;28;20640;-82
2022/04/06 00:54:34;;;;;;;0.97;0.87;;;3.90;99.90;;;;;;5007040;28;20224;-82
2022/04/06 00:57:00;;;;;;;1.00;0.90;;;4.00;99.90;;;;;;4992254;28;20855;-82
2022/04/06 00:59:29;;;;;;;0.80;0.73;;;3.90;99.90;;;;;;5010197;28;20531;-82
2022/04/06 01:01:55;;;;;;;0.90;0.80;;;4.00;99.90;;;;;;5004771;28;20451;-82
2022/04/06 01:04:20;;;;;;;8.63;2.40;;;3.90;99.90;;;;;;5010847;28;20431;-82
2022/04/06 01:06:48;;;;;;;0.80;0.80;;;3.90;99.90;;;;;;5015679;28;20454;-82
2022/04/06 01:09:16;;;;;;;0.80;0.80;;;4.00;99.90;;;;;;4992608;28;20262;-82
2022/04/06 01:11:44;;;;;;;0.90;0.80;;;3.90;99.90;;;;;;5007251;28;20442;-82
2022/04/06 01:14:10;;;;;;;1.20;1.10;;;3.90;99.90;;;;;;5011415;28;20431;-82
2022/04/06 01:16:36;;;;;;;0.80;0.80;;;4.00;99.90;;;;;;5009204;28;20475;-82
2022/04/06 01:19:01;;;;;;;0.80;0.70;;;4.00;99.90;;;;;;5009974;28;20538;-82
2022/04/06 01:21:27;;;;;;;0.80;0.70;;;3.90;99.90;;;;;;5014309;28;20535;-82
2022/04/06 01:23:52;;;;;;;0.80;0.80;;;4.00;99.90;;;;;;5023516;28;20182;-82
2022/04/06 01:26:18;;;;;;;0.80;0.80;;;4.00;99.90;;;;;;5024235;28;20550;-83
2022/04/06 01:28:43;;;;;;;0.80;0.80;;;4.00;99.90;;;;;;5014395;28;20187;-80
2022/04/06 01:31:10;;;;;;;0.90;0.80;;;4.10;99.90;;;;;;4984770;28;20193;-81
2022/04/06 01:33:36;;;;;;;0.80;0.80;;;4.10;99.90;;;;;;5007957;28;20184;-81
2022/04/06 01:36:02;;;;;;;0.60;0.60;;;4.00;99.90;;;;;;5007425;28;20479;-80
2022/04/06 01:38:27;;;;;;;13.13;2.13;;;4.00;99.90;;;;;;5010874;28;20180;-82
2022/04/06 01:40:54;;;;;;;2.90;1.30;;;4.00;99.90;;;;;;5017180;28;20716;-82
2022/04/06 01:43:20;;;;;;;0.50;0.50;;;4.00;99.90;;;;;;5010524;28;20203;-82
2022/04/06 01:45:46;;;;;;;0.80;0.80;;;4.00;99.90;;;;;;5011427;28;20479;-82
2022/04/06 01:48:14;;;;;;;0.93;0.87;;;4.00;99.90;;;;;;5007859;28;20454;-82
2022/04/06 01:53:24;;;;;;;0.80;0.70;;;4.00;99.90;;;;;;5005318;28;20861;-82
2022/04/06 01:55:50;;;;;;;0.83;0.80;;;4.00;99.90;;;;;;5014023;28;20474;-82
2022/04/06 01:58:17;;;;;;;1.37;1.27;;;4.00;99.90;;;;;;5006151;28;20665;-82
2022/04/06 02:00:42;;;;;;;0.80;0.70;;;4.10;99.90;;;;;;5007297;28;20446;-81
2022/04/06 02:03:08;;;;;;;1.10;1.00;;;4.00;99.90;;;;;;5012402;28;20550;-82
2022/04/06 02:05:35;;;;;;;0.80;0.70;;;4.00;99.90;;;;;;5009748;28;20204;-82
2022/04/06 02:08:01;;;;;;;0.80;0.70;;;4.10;99.90;;;;;;5000497;28;20212;-80
2022/04/06 02:10:27;;;;;;;0.90;0.90;;;4.00;99.90;;;;;;4995960;28;20483;-82
2022/04/06 02:12:57;;;;;;;0.90;0.90;;;4.10;99.90;;;;;;5017789;28;20443;-82
2022/04/06 02:15:23;;;;;;;0.80;0.73;;;4.10;99.90;;;;;;5016888;28;20465;-82
2022/04/06 02:17:49;;;;;;;0.80;0.70;;;4.10;99.90;;;;;;5019468;28;20489;-81
2022/04/06 02:20:15;;;;;;;0.80;0.77;;;4.10;99.90;;;;;;5007258;28;20833;-82
2022/04/06 02:22:42;;;;;;;2.50;1.17;;;4.10;99.90;;;;;;5011211;28;20235;-80
2022/04/06 02:25:08;;;;;;;0.90;0.90;;;4.10;99.90;;;;;;4992943;28;20447;-83
2022/04/06 02:27:33;;;;;;;1.10;1.00;;;4.10;99.90;;;;;;5018134;28;20454;-80
2022/04/06 02:29:59;;;;;;;2.70;1.63;;;4.10;99.90;;;;;;5010943;28;20486;-83
2022/04/06 02:32:25;;;;;;;1.10;1.00;;;4.20;99.90;;;;;;5016956;28;20196;-83
2022/04/06 02:34:50;;;;;;;0.80;0.80;;;4.10;99.90;;;;;;5010484;28;20200;-83
2022/04/06 02:37:16;;;;;;;0.80;0.80;;;4.10;99.90;;;;;;5008601;28;20307;-83
2022/04/06 02:39:41;;;;;;;0.80;0.80;;;4.10;99.90;;;;;;5024579;28;20274;-82
2022/04/06 02:42:07;;;;;;;1.57;1.47;;;4.10;99.90;;;;;;5012948;28;20648;-83
2022/04/06 02:44:33;;;;;;;0.80;0.70;;;4.20;99.90;;;;;;5014303;28;20192;-82
2022/04/06 02:46:59;;;;;;;4.97;2.00;;;4.20;99.90;;;;;;5007121;28;20443;-82
2022/04/06 02:49:25;;;;;;;0.80;0.80;;;4.20;99.90;;;;;;5008305;28;20350;-82
2022/04/06 02:51:50;;;;;;;0.80;0.60;;;4.20;99.90;;;;;;5011004;28;20192;-83
2022/04/06 02:54:16;;;;;;;0.80;0.60;;;4.30;99.90;;;;;;5012550;28;20188;-83
2022/04/06 02:56:42;;;;;;;0.80;0.80;;;4.30;99.90;;;;;;5000285;28;20897;-82
2022/04/06 02:59:08;;;;;;;0.80;0.77;;;4.40;99.90;;;;;;4993400;28;20196;-81
2022/04/06 03:01:33;;;;;;;1.00;1.00;;;4.40;99.90;;;;;;5005513;28;20459;-82
2022/04/06 03:03:59;;;;;;;0.77;0.70;;;4.40;99.90;;;;;;5009393;28;20188;-82
2022/04/06 03:06:24;;;;;;;2.23;2.10;;;4.50;99.90;;;;;;5004472;28;20451;-82
2022/04/06 03:08:50;;;;;;;1.20;1.10;;;4.60;99.90;;;;;;5008224;28;20653;-82
2022/04/06 03:11:16;;;;;;;3.23;3.13;;;4.60;99.90;;;;;;5008726;28;20212;-81
2022/04/06 03:13:41;;;;;;;0.80;0.73;;;4.70;99.90;;;;;;5011753;28;20377;-82
2022/04/06 03:16:07;;;;;;;0.80;0.70;;;4.80;99.90;;;;;;5015608;28;20212;-83
2022/04/06 03:18:33;;;;;;;0.70;0.63;;;4.90;99.90;;;;;;5008393;28;20585;-82
2022/04/06 03:20:58;;;;;;;0.80;0.70;;;5.00;99.90;;;;;;5010435;28;20596;-83
2022/04/06 03:23:24;;;;;;;3.37;3.17;;;5.10;99.90;;;;;;5011550;28;20565;-83
2022/04/06 03:25:49;;;;;;;1.83;1.73;;;5.30;99.90;;;;;;5012830;28;20577;-83
2022/04/06 03:28:15;;;;;;;0.80;0.70;;;5.30;99.90;;;;;;5011842;28;20319;-82
2022/04/06 03:30:41;;;;;;;1.73;1.63;;;5.60;99.90;;;;;;5004423;28;20665;-81
2022/04/06 03:33:09;;;;;;;6.70;6.50;;;5.70;99.90;;;;;;5011225;28;20208;-81
2022/04/06 03:35:35;;;;;;;1.43;1.43;;;5.80;99.90;;;;;;4990913;28;20222;-80
2022/04/06 03:38:01;;;;;;;1.73;1.63;;;5.90;99.90;;;;;;5013699;28;21055;-80
2022/04/06 03:40:28;;;;;;;1.37;1.27;;;6.10;99.90;;;;;;5010394;28;20447;-81
2022/04/06 03:42:54;;;;;;;5.87;5.67;;;6.20;99.90;;;;;;4990367;28;20244;-81
2022/04/06 03:45:20;;;;;;;0.93;0.93;;;6.30;99.90;;;;;;5024623;28;20467;-81
2022/04/06 03:47:46;;;;;;;2.63;2.60;;;6.30;99.90;;;;;;5016207;28;21095;-81
2022/04/06 03:50:12;;;;;;;0.50;0.50;;;6.30;99.90;;;;;;5007421;28;20460;-81
2022/04/06 03:52:37;;;;;;;3.97;3.87;;;6.40;99.90;;;;;;4988468;28;20584;-81
2022/04/06 03:55:05;;;;;;;1.67;1.57;;;6.50;99.90;;;;;;5009600;28;20294;-81
2022/04/06 03:57:31;;;;;;;0.77;0.77;;;6.50;99.90;;;;;;5008119;28;20299;-81
2022/04/06 03:59:56;;;;;;;1.23;1.23;;;6.50;99.90;;;;;;5005366;28;20638;-81
2022/04/06 04:02:22;;;;;;;2.60;2.60;;;6.60;99.90;;;;;;5007337;28;20551;-80
2022/04/06 04:04:47;;;;;;;1.07;1.07;;;6.60;99.90;;;;;;5007154;28;20192;-80
2022/04/06 04:07:20;;;;;;;2.13;2.13;;;6.60;99.90;;;;;;5004020;28;20193;-81
2022/04/06 04:09:46;;;;;;;1.23;1.23;;;6.60;99.90;;;;;;5008262;28;20176;-81
2022/04/06 04:12:11;;;;;;;1.23;1.23;;;6.60;99.90;;;;;;4988814;28;20981;-81
2022/04/06 04:14:37;;;;;;;2.17;2.07;;;6.60;99.90;;;;;;5007297;28;20450;-80
2022/04/06 04:17:03;;;;;;;0.40;0.40;;;6.70;99.90;;;;;;5007018;28;20224;-80
2022/04/06 04:19:28;;;;;;;1.97;1.97;;;6.60;99.90;;;;;;5008808;28;20188;-80
2022/04/06 04:21:54;;;;;;;1.37;1.37;;;6.60;99.90;;;;;;5009631;28;20255;-81
2022/04/06 04:24:19;;;;;;;1.20;1.20;;;6.70;99.90;;;;;;5009700;28;20199;-80
2022/04/06 04:26:45;;;;;;;1.23;1.23;;;6.70;99.90;;;;;;5009755;28;20238;-80
2022/04/06 04:29:10;;;;;;;2.40;2.30;;;6.70;99.90;;;;;;5008619;28;20659;-81
2022/04/06 04:31:36;;;;;;;2.33;2.13;;;6.70;99.90;;;;;;4989719;28;20671;-81
2022/04/06 04:34:02;;;;;;;3.40;3.30;;;6.70;99.90;;;;;;5009760;28;20192;-80
2022/04/06 04:36:30;;;;;;;1.50;1.40;;;6.70;99.90;;;;;;5008316;28;20570;-81
2022/04/06 04:38:56;;;;;;;2.53;2.37;;;6.80;99.90;;;;;;5008912;28;20450;-80
2022/04/06 04:41:22;;;;;;;0.80;0.80;;;6.80;99.90;;;;;;5011210;28;20807;-81
2022/04/06 04:43:48;;;;;;;4.60;4.40;;;6.80;99.90;;;;;;5012468;28;20184;-80
2022/04/06 04:46:14;;;;;;;2.40;2.30;;;6.80;99.90;;;;;;5011467;28;21204;-81
2022/04/06 04:48:40;;;;;;;0.80;0.70;;;6.80;99.90;;;;;;5013248;28;20473;-80
2022/04/06 04:51:05;;;;;;;0.80;0.60;;;6.80;99.90;;;;;;5011519;28;20443;-81
2022/04/06 04:53:32;;;;;;;1.77;1.23;;;6.80;99.90;;;;;;4994745;28;20267;-80
2022/04/06 04:55:58;;;;;;;0.80;0.60;;;6.80;99.90;;;;;;5011914;28;20223;-81
2022/04/06 04:58:23;;;;;;;0.80;0.70;;;6.80;99.90;;;;;;5011337;28;20478;-80
2022/04/06 05:00:49;;;;;;;0.80;0.70;;;6.90;99.90;;;;;;5008557;28;20250;-82
2022/04/06 05:03:14;;;;;;;0.80;0.60;;;6.90;99.90;;;;;;5012366;28;20307;-82
2022/04/06 05:05:43;;;;;;;1.73;1.63;;;7.00;99.90;;;;;;5008629;28;20193;-80
2022/04/06 05:08:09;;;;;;;0.80;0.67;;;6.90;99.90;;;;;;5011586;28;20181;-80
2022/04/06 05:10:34;;;;;;;3.03;2.70;;;6.90;99.90;;;;;;5010073;28;20954;-80
2022/04/06 05:13:00;;;;;;;0.80;0.70;;;7.00;99.90;;;;;;4991431;28;20456;-81
2022/04/06 05:15:26;;;;;;;1.13;1.03;;;7.00;99.90;;;;;;5009003;28;20206;-81
2022/04/06 05:17:51;;;;;;;0.80;0.70;;;7.00;99.90;;;;;;5013367;28;20234;-80
2022/04/06 05:20:17;;;;;;;2.07;1.97;;;7.00;99.90;;;;;;5009774;28;20652;-82
2022/04/06 05:22:42;;;;;;;0.80;0.60;;;7.00;99.90;;;;;;5012666;28;20198;-81
2022/04/06 05:25:08;;;;;;;0.93;0.90;;;7.10;99.90;;;;;;5012062;28;20191;-81
2022/04/06 05:27:45;;;;;;;1.73;1.27;;;7.10;99.90;;;;;;5013375;28;20663;-81
2022/04/06 05:30:13;;;;;;;0.80;0.60;;;7.10;99.90;;;;;;5011761;28;20596;-81
2022/04/06 05:32:38;;;;;;;1.83;1.33;;;7.10;99.90;;;;;;5010683;28;20437;-81
2022/04/06 05:35:06;;;;;;;1.30;1.00;;;7.10;99.90;;;;;;5008448;28;20451;-82
2022/04/06 05:37:33;;;;;;;0.87;0.70;;;7.10;99.90;;;;;;4995005;28;20262;-81
2022/04/06 05:40:00;;;;;;;1.33;1.23;;;7.10;99.90;;;;;;5009452;28;20458;-82
2022/04/06 05:42:25;;;;;;;8.93;1.43;;;7.20;99.90;;;;;;5026718;28;20461;-81
2022/04/06 05:44:51;;;;;;;3.43;3.13;;;7.20;99.90;;;;;;5011480;28;20503;-81
2022/04/06 05:47:17;;;;;;;0.80;0.70;;;7.20;99.90;;;;;;5009714;28;20208;-81
2022/04/06 05:49:43;;;;;;;2.50;1.90;;;7.20;99.90;;;;;;5010867;28;20598;-81
2022/04/06 05:52:09;;;;;;;0.80;0.80;;;7.20;99.90;;;;;;5008903;28;20589;-81
2022/04/06 05:54:35;;;;;;;0.80;0.60;;;7.20;99.90;;;;;;5010790;28;20490;-82
2022/04/06 05:57:01;;;;;;;0.80;0.67;;;7.20;99.90;;;;;;5016757;28;20975;-81
2022/04/06 05:59:26;;;;;;;0.80;0.70;;;7.30;99.90;;;;;;5012485;28;20493;-81
2022/04/06 06:01:52;;;;;;;1.30;1.20;;;7.30;99.90;;;;;;5015422;28;20588;-81
2022/04/06 06:04:17;;;;;;;1.73;1.50;;;7.30;99.90;;;;;;5008140;28;20196;-81
2022/04/06 06:06:43;;;;;;;1.73;0.90;;;7.30;99.90;;;;;;5012081;28;20231;-81
2022/04/06 06:09:08;;;;;;;0.80;0.70;;;7.30;99.90;;;;;;4991986;28;20188;-81
2022/04/06 06:11:34;;;;;;;0.80;0.60;;;7.30;99.90;;;;;;5016509;28;20537;-80
2022/04/06 06:13:59;;;;;;;0.87;0.77;;;7.30;99.90;;;;;;5010259;28;20231;-80
2022/04/06 06:16:25;;;;;;;0.80;0.60;;;7.40;99.90;;;;;;5011379;28;20702;-81
2022/04/06 06:18:50;;;;;;;0.80;0.70;;;7.40;99.90;;;;;;5007645;28;20184;-81
2022/04/06 06:21:16;;;;;;;0.80;0.80;;;7.40;99.90;;;;;;4992564;28;20609;-81
2022/04/06 06:23:41;;;;;;;3.10;2.03;;;7.40;99.90;;;;;;5014963;28;20188;-81
2022/04/06 06:26:07;;;;;;;0.80;0.70;;;7.40;99.90;;;;;;5011965;28;20605;-81
2022/04/06 06:28:32;;;;;;;3.00;2.80;;;7.40;99.90;;;;;;5017644;28;20274;-81
2022/04/06 06:30:58;;;;;;;0.83;0.80;;;7.50;99.90;;;;;;5020132;28;20197;-80
2022/04/06 06:33:24;;;;;;;2.13;1.93;;;7.50;99.90;;;;;;5007143;28;20527;-81
2022/04/06 06:35:50;;;;;;;2.03;1.93;;;7.50;99.90;;;;;;5022217;28;20184;-80
2022/04/06 06:38:15;;;;;;;0.80;0.80;;;7.50;99.90;;;;;;5009737;28;20537;-82
2022/04/06 06:40:41;;;;;;;0.80;0.70;;;7.50;99.90;;;;;;5008809;28;20656;-81
2022/04/06 06:43:06;;;;;;;1.40;1.30;;;7.50;99.90;;;;;;4998218;28;20202;-82
2022/04/06 06:45:32;;;;;;;1.40;1.00;;;7.60;99.90;;;;;;5007721;28;20196;-83
2022/04/06 06:47:57;;;;;;;2.33;2.13;;;7.70;99.90;;;;;;5007478;28;20180;-83
2022/04/06 06:50:23;;;;;;;1.37;1.27;;;7.70;99.90;;;;;;5004463;28;20278;-83
2022/04/06 06:52:48;;;;;;;0.80;0.60;;;7.60;99.90;;;;;;5004178;28;20560;-82
2022/04/06 06:55:15;;;;;;;1.47;1.37;;;7.60;99.90;;;;;;5007380;28;20227;-83
2022/04/06 06:57:41;;;;;;;0.80;0.70;;;7.60;99.90;;;;;;4991357;28;20230;-81
2022/04/06 07:00:07;;;;;;;1.83;1.53;;;7.50;99.90;;;;;;4993292;28;20561;-81
2022/04/06 07:02:32;;;;;;;0.80;0.80;;;7.50;99.90;;;;;;5000415;28;20200;-82
2022/04/06 07:04:58;;;;;;;2.97;2.30;;;7.50;99.90;;;;;;5009855;28;21025;-81
2022/04/06 07:07:23;;;;;;;10.17;9.77;;;7.50;99.90;;;;;;5007472;28;20966;-82
2022/04/06 07:09:49;;;;;;;1.47;1.47;;;7.50;99.90;;;;;;4996125;28;20192;-81
2022/04/06 07:12:14;;;;;;;0.30;0.30;;;7.40;99.90;;;;;;4991248;28;20191;-82
2022/04/06 07:14:40;;;;;;;0.73;0.73;;;7.40;99.90;;;;;;5011281;28;20176;-82
2022/04/06 07:17:06;;;;;;;0.30;0.30;;;7.40;99.90;;;;;;5009546;28;20704;-82
2022/04/06 07:19:31;;;;;;;1.83;1.57;;;7.40;99.90;;;;;;5007443;28;20231;-82
2022/04/06 07:21:57;;;;;;;0.53;0.53;;;7.40;99.90;;;;;;5007901;28;20192;-82
2022/04/06 07:24:22;;;;;;;0.30;0.30;;;7.40;99.90;;;;;;5009529;28;20184;-82
2022/04/06 07:26:48;;;;;;;0.87;0.87;;;7.50;99.90;;;;;;5009438;28;20191;-82
2022/04/06 07:29:15;;;;;;;0.50;0.50;;;7.50;99.90;;;;;;5008509;28;20716;-83
2022/04/06 07:31:44;;;;;;;0.40;0.40;;;7.50;99.90;;;;;;5001760;28;20519;-82
2022/04/06 07:34:10;;;;;;;1.37;1.37;;;7.50;99.90;;;;;;5005713;28;20785;-81
2022/04/06 07:36:37;;;;;;;0.50;0.50;;;7.50;99.90;;;;;;5010406;28;20471;-90
2022/04/06 07:39:05;;;;;;;0.40;0.40;;;7.50;99.90;;;;;;5009911;28;20491;-89
2022/04/06 07:41:32;;;;;;;0.70;0.70;;;7.50;99.90;;;;;;5009425;28;20875;-90
2022/04/06 07:43:57;;;;;;;0.67;0.60;;;7.40;99.90;;;;;;4992896;28;20454;-90
2022/04/06 07:46:23;;;;;;;1.40;1.40;;;7.50;99.90;;;;;;5011081;28;20454;-90
2022/04/06 07:48:49;;;;;;;0.57;0.57;;;7.50;99.90;;;;;;5010855;28;20725;-88
2022/04/06 07:51:15;;;;;;;1.60;1.60;;;7.50;99.90;;;;;;5006675;28;20671;-88
2022/04/06 07:53:41;;;;;;;1.47;0.97;;;7.50;99.90;;;;;;5008305;28;20287;-86
2022/04/06 07:56:07;;;;;;;0.40;0.40;;;7.50;99.90;;;;;;5009754;28;20840;-88
2022/04/06 07:58:34;;;;;;;0.40;0.40;;;7.50;99.90;;;;;;5011049;28;20556;-87
2022/04/06 08:01:01;;;;;;;0.30;0.30;;;7.50;99.90;;;;;;5007734;28;20180;-88
2022/04/06 08:03:26;;;;;;;0.40;0.40;;;7.60;99.90;;;;;;5009073;28;20455;-88
2022/04/06 08:05:52;;;;;;;0.40;0.40;;;7.60;99.90;;;;;;5006367;28;20502;-89
2022/04/06 08:08:17;;;;;;;0.63;0.63;;;7.50;99.90;;;;;;5009053;28;20184;-84
2022/04/06 08:10:43;;;;;;;0.33;0.33;;;7.60;99.90;;;;;;5009588;28;20203;-87
2022/04/06 08:13:09;;;;;;;0.40;0.40;;;7.60;99.90;;;;;;5003960;28;20212;-85
2022/04/06 08:15:34;;;;;;;0.50;0.50;;;7.60;99.90;;;;;;4989639;28;20192;-85
2022/04/06 08:18:00;;;;;;;0.60;0.60;;;7.60;99.90;;;;;;5006422;28;20256;-84
2022/04/06 08:20:26;;;;;;;2.63;2.53;;;7.50;99.90;;;;;;5004752;28;20180;-85
2022/04/06 08:22:52;;;;;;;1.23;1.23;;;7.60;99.90;;;;;;4989658;28;20200;-83
2022/04/06 08:25:17;;;;;;;0.77;0.77;;;7.60;99.90;;;;;;5006577;28;20439;-84
2022/04/06 08:27:43;;;;;;;0.77;0.77;;;7.60;99.90;;;;;;4988468;28;20219;-84
2022/04/06 08:30:11;;;;;;;0.83;0.83;;;7.60;99.90;;;;;;5025404;28;20683;-84
2022/04/06 08:32:37;;;;;;;0.50;0.50;;;7.60;99.90;;;;;;5004915;28;20716;-85
2022/04/06 08:35:03;;;;;;;1.23;1.23;;;7.60;99.90;;;;;;5009487;28;20454;-84
2022/04/06 08:37:32;;;;;;;1.37;1.37;;;7.60;99.90;;;;;;5009278;28;20561;-84
2022/04/06 08:39:59;;;;;;;2.13;2.03;;;7.70;99.90;;;;;;5007080;28;20451;-85
2022/04/06 08:42:25;;;;;;;2.00;2.00;;;7.70;99.90;;;;;;5001841;28;20451;-83
2022/04/06 08:44:51;;;;;;;6.50;6.10;;;7.70;99.90;;;;;;5006295;28;20447;-85
2022/04/06 08:47:17;;;;;;;0.97;0.97;;;7.70;99.90;;;;;;5006928;28;20447;-85
2022/04/06 08:49:45;;;;;;;1.30;1.30;;;7.70;99.90;;;;;;5004668;28;20185;-84
2022/04/06 08:52:11;;;;;;;0.30;0.30;;;7.70;99.90;;;;;;5002570;28;20447;-85
2022/04/06 08:54:37;;;;;;;0.80;0.80;;;7.70;99.90;;;;;;5008344;28;20834;-85
2022/04/06 08:57:03;;;;;;;1.33;1.33;;;7.80;99.90;;;;;;5007572;28;20692;-84
2022/04/06 08:59:28;;;;;;;2.03;1.93;;;7.70;99.90;;;;;;4988318;28;20434;-86
2022/04/06 09:01:56;;;;;;;1.23;1.23;;;7.80;99.90;;;;;;5001113;28;20200;-84
2022/04/06 09:04:23;;;;;;;0.80;0.80;;;7.80;99.90;;;;;;4977748;28;20653;-85
2022/04/06 09:06:49;;;;;;;2.07;2.00;;;7.80;99.90;;;;;;5004320;28;20459;-84
2022/04/06 09:09:21;;;;;;;0.63;0.63;;;7.80;99.90;;;;;;5011104;28;20453;-85
2022/04/06 09:11:47;;;;;;;1.60;1.60;;;7.80;99.90;;;;;;5003069;28;20446;-85
2022/04/06 09:14:12;;;;;;;3.73;3.57;;;7.80;99.90;;;;;;4983566;28;20982;-85
2022/04/06 09:16:38;;;;;;;2.77;2.67;;;7.80;99.90;;;;;;5008969;28;20251;-85
2022/04/06 09:19:14;;;;;;;1.20;1.20;;;7.80;99.90;;;;;;4993744;28;20196;-86
2022/04/06 09:21:41;;;;;;;2.77;2.57;;;7.80;99.90;;;;;;5002977;28;20184;-84
2022/04/06 09:24:17;;;;;;;2.87;2.70;;;7.80;99.90;;;;;;5006878;28;20505;-85
2022/04/06 09:26:42;;;;;;;1.03;1.03;;;7.90;99.90;;;;;;5002073;28;20446;-85
2022/04/06 09:29:11;;;;;;;1.77;1.67;;;7.80;99.90;;;;;;4998613;28;20507;-85
2022/04/06 09:31:38;;;;;;;1.53;1.43;;;7.90;99.90;;;;;;5012731;28;20181;-84
2022/04/06 09:34:04;;;;;;;1.00;0.90;;;7.90;99.90;;;;;;5011065;28;20946;-84
2022/04/06 09:36:31;;;;;;;0.80;0.60;;;7.90;99.90;;;;;;4991900;28;20494;-84
2022/04/06 09:38:57;;;;;;;3.37;3.27;;;8.00;99.90;;;;;;5005042;28;20442;-85
2022/04/06 09:41:23;;;;;;;6.27;5.97;;;8.00;99.90;;;;;;4994052;28;20434;-85
2022/04/06 09:43:55;;;;;;;2.40;2.30;;;8.00;99.90;;;;;;5009169;28;20906;-84
2022/04/06 09:49:14;;;;;;;4.00;3.90;;;8.10;99.90;;;;;;5009550;28;20450;-84
2022/04/06 09:51:50;;;;;;;1.67;1.57;;;8.10;99.90;;;;;;5004932;28;20840;-84
2022/04/06 09:54:16;;;;;;;0.80;0.80;;;8.00;99.90;;;;;;5011037;28;20502;-84
2022/04/06 09:56:42;;;;;;;8.03;7.60;;;8.00;99.90;;;;;;4993498;28;20578;-84
2022/04/06 09:59:10;;;;;;;1.50;1.40;;;8.00;99.90;;;;;;5011965;28;20188;-85
2022/04/06 10:01:39;;;;;;;0.80;0.60;;;8.10;99.90;;;;;;4991975;28;20484;-85
2022/04/06 10:04:10;;;;;;;3.07;2.87;;;8.10;99.90;;;;;;4994101;28;20453;-85
2022/04/06 10:06:38;;;;;;;2.83;2.70;;;8.10;99.90;;;;;;5004820;28;20435;-83
2022/04/06 10:09:09;;;;;;;11.00;3.63;;;8.20;99.90;;;;;;4994820;28;20445;-84
2022/04/06 10:11:36;;;;;;;1.40;1.30;;;8.20;99.90;;;;;;5032614;28;20437;-85
2022/04/06 10:14:04;;;;;;;1.20;1.10;;;8.20;99.90;;;;;;5013201;28;20450;-85
2022/04/06 10:16:31;;;;;;;1.50;1.40;;;8.20;99.90;;;;;;4992350;28;20834;-86
2022/04/06 10:18:58;;;;;;;1.13;1.00;;;8.20;99.90;;;;;;5011699;28;20447;-86
2022/04/06 10:21:45;;;;;;;6.77;6.47;;;8.20;99.90;;;;;;5011100;28;20439;-86
2022/04/06 10:24:38;;;;;;;2.80;2.70;;;8.20;99.90;;;;;;5012193;28;20541;-85
2022/04/06 10:27:21;;;;;;;7.27;6.97;;;8.20;99.90;;;;;;5010314;28;21038;-85
2022/04/06 10:30:05;;;;;;;3.70;3.60;;;8.20;99.90;;;;;;5011023;28;20918;-84
2022/04/06 10:32:35;;;;;;;1.10;1.10;;;8.30;99.90;;;;;;5010797;28;20453;-84
2022/04/06 10:35:19;;;;;;;1.70;1.70;;;8.30;99.90;;;;;;5009715;28;20443;-86
2022/04/06 10:37:56;;;;;;;1.50;1.50;;;8.30;99.90;;;;;;5006532;28;20843;-86
2022/04/06 10:40:23;;;;;;;0.87;0.87;;;8.30;99.90;;;;;;5009793;28;20963;-85
2022/04/06 10:42:49;;;;;;;4.90;4.70;;;8.30;99.90;;;;;;5008716;28;20958;-85
2022/04/06 10:45:24;;;;;;;2.60;2.50;;;8.40;99.90;;;;;;5007651;28;21837;-85
2022/04/06 10:48:12;;;;;;;2.20;2.10;;;8.50;99.90;;;;;;5007613;28;21978;-86
2022/04/06 10:50:38;;;;;;;1.93;1.90;;;8.50;99.90;;;;;;5008304;28;20450;-85
2022/04/06 10:53:27;;;;;;;0.97;0.97;;;8.50;99.90;;;;;;5009669;28;20454;-84
2022/04/06 10:56:07;;;;;;;1.90;1.90;;;8.40;99.90;;;;;;5006571;28;20501;-83
2022/04/06 10:58:57;;;;;;;2.90;2.80;;;8.40;99.90;;;;;;5010520;28;20454;-84
2022/04/06 11:01:29;;;;;;;6.60;6.30;;;8.30;99.90;;;;;;5010657;28;20502;-85
2022/04/06 11:03:56;;;;;;;1.70;1.60;;;8.30;99.90;;;;;;5013754;28;20529;-85
2022/04/06 11:06:40;;;;;;;1.53;1.43;;;8.30;99.90;;;;;;5006682;28;20450;-85
2022/04/06 11:12:17;;;;;;;0.90;0.90;;;8.30;99.90;;;;;;5025947;28;20885;-86
2022/04/06 11:14:49;;;;;;;1.27;1.17;;;8.40;99.90;;;;;;5016627;28;20446;-86
2022/04/06 11:17:41;;;;;;;2.43;2.33;;;8.40;99.90;;;;;;5011852;28;20475;-85
2022/04/06 11:20:08;;;;;;;2.80;2.70;;;8.40;99.90;;;;;;5009130;28;20481;-84
2022/04/06 11:22:37;;;;;;;2.97;2.87;;;8.40;99.90;;;;;;5010583;28;20454;-87
2022/04/06 11:25:07;;;;;;;0.80;0.80;;;8.30;99.90;;;;;;5009188;28;20800;-83
2022/04/06 11:27:35;;;;;;;0.70;0.70;;;8.30;99.90;;;;;;5010186;28;20448;-87
2022/04/06 11:30:08;;;;;;;0.40;0.40;;;8.30;99.90;;;;;;4992075;28;20436;-86
2022/04/06 11:32:34;;;;;;;5.07;4.87;;;8.20;99.90;;;;;;5012921;28;20447;-86
2022/04/06 11:35:02;;;;;;;1.67;1.57;;;8.30;99.90;;;;;;5010365;28;20804;-85
2022/04/06 11:37:28;;;;;;;2.43;2.37;;;8.30;99.90;;;;;;4992816;28;20486;-84
2022/04/06 11:40:00;;;;;;;3.50;3.40;;;8.30;99.90;;;;;;5009555;28;20562;-85
2022/04/06 11:42:27;;;;;;;3.30;3.17;;;8.30;99.90;;;;;;5012758;28;20447;-85
2022/04/06 11:44:53;;;;;;;1.03;0.93;;;8.30;99.90;;;;;;5009116;28;20832;-85
2022/04/06 11:47:36;;;;;;;0.80;0.60;;;8.30;99.90;;;;;;5009907;28;20451;-86
2022/04/06 11:50:05;;;;;;;0.60;0.60;;;8.40;99.90;;;;;;5006815;28;20502;-85
2022/04/06 11:52:32;;;;;;;0.80;0.80;;;8.30;99.90;;;;;;5001591;28;20868;-86
2022/04/06 11:54:59;;;;;;;0.80;0.60;;;8.30;99.90;;;;;;5009727;28;20573;-84
2022/04/06 11:57:38;;;;;;;1.20;1.10;;;8.30;99.90;;;;;;5008166;28;20487;-85
2022/04/06 12:00:06;;;;;;;1.00;0.90;;;8.30;99.90;;;;;;5013045;28;20485;-86
2022/04/06 12:02:50;;;;;;;0.80;0.70;;;8.30;99.90;;;;;;4999462;28;20537;-85
2022/04/06 12:05:17;;;;;;;1.53;1.43;;;8.20;99.90;;;;;;5004947;28;20800;-85
2022/04/06 12:07:43;;;;;;;6.67;6.40;;;8.20;99.90;;;;;;5005309;28;20447;-85
2022/04/06 12:10:09;;;;;;;2.17;2.07;;;8.30;99.90;;;;;;4999249;28;20443;-85
2022/04/06 12:12:39;;;;;;;3.43;3.23;;;8.30;99.90;;;;;;4988488;28;20449;-83
2022/04/06 12:15:06;;;;;;;0.80;0.70;;;8.30;99.90;;;;;;4973634;28;20300;-85
2022/04/06 12:17:33;;;;;;;7.43;7.13;;;8.30;99.90;;;;;;4984229;28;20537;-84
2022/04/06 12:19:59;;;;;;;0.80;0.80;;;8.30;99.90;;;;;;5006937;28;20529;-84
2022/04/06 12:22:25;;;;;;;1.37;1.27;;;8.40;99.90;;;;;;5012225;28;20546;-85
2022/04/06 12:24:51;;;;;;;2.77;2.57;;;8.30;99.90;;;;;;5005653;28;20955;-84
2022/04/06 12:27:28;;;;;;;0.80;0.67;;;8.30;99.90;;;;;;5010549;28;20455;-84
2022/04/06 12:30:22;;;;;;;1.17;0.80;;;8.40;99.90;;;;;;5008718;28;20641;-83
2022/04/06 12:32:49;;;;;;;0.80;0.60;;;8.40;99.90;;;;;;4981421;28;20566;-84
2022/04/06 12:35:20;;;;;;;0.80;0.60;;;8.40;99.90;;;;;;5007524;28;20524;-85
2022/04/06 12:37:46;;;;;;;0.80;0.70;;;8.40;99.90;;;;;;5000928;28;20606;-85
2022/04/06 12:40:23;;;;;;;0.80;0.70;;;8.30;99.90;;;;;;5010238;28;20447;-82
2022/04/06 12:42:49;;;;;;;1.47;1.37;;;8.30;99.90;;;;;;5009163;28;20442;-83
2022/04/06 12:45:15;;;;;;;0.80;0.60;;;8.30;99.90;;;;;;5007433;28;20550;-84
2022/04/06 12:47:41;;;;;;;1.20;1.10;;;8.30;99.90;;;;;;5008379;28;20529;-84
2022/04/06 12:50:19;;;;;;;0.80;0.70;;;8.30;99.90;;;;;;5008219;28;20191;-83
2022/04/06 12:52:47;;;;;;;1.20;1.10;;;8.40;99.90;;;;;;4998292;28;20466;-86
2022/04/06 12:55:15;;;;;;;5.33;5.13;;;8.40;99.90;;;;;;5003587;28;20490;-82
2022/04/06 12:57:40;;;;;;;0.80;0.67;;;8.40;99.90;;;;;;5017867;28;20504;-83
2022/04/06 13:00:13;;;;;;;0.80;0.70;;;8.40;99.90;;;;;;5008976;28;20923;-84
2022/04/06 13:02:47;;;;;;;1.13;1.03;;;8.50;99.90;;;;;;5004765;28;20195;-83
2022/04/06 13:05:15;;;;;;;1.77;1.70;;;8.60;99.90;;;;;;5014229;28;20414;-83
2022/04/06 13:07:45;;;;;;;2.10;2.00;;;8.70;99.90;;;;;;5003895;28;20442;-84
2022/04/06 13:10:12;;;;;;;1.27;1.27;;;8.70;99.90;;;;;;5033851;28;20423;-84